createdAt,value
2023-03-21T03:33:02.467Z,11.10
2023-03-21T03:35:31.004Z,11.65
2023-03-21T03:38:01.606Z,11.55
2023-03-21T03:40:34.450Z,10.80
2023-03-21T03:43:16.567Z,10.48
2023-03-21T03:45:48.301Z,10.57
2023-03-21T03:48:25.581Z,11.68
2023-03-21T03:51:01.519Z,10.65
2023-03-21T03:53:57.707Z,10.55
2023-03-21T03:56:28.814Z,9.88
2023-03-21T03:58:57.509Z,10.40
2023-03-21T04:01:39.886Z,10.10
2023-03-21T04:04:13.367Z,10.68
2023-03-21T04:06:51.827Z,9.80
2023-03-21T04:09:34.064Z,10.45
2023-03-21T04:12:08.983Z,10.07
2023-03-21T04:14:44.330Z,9.60
2023-03-21T04:17:14.534Z,9.75
2023-03-21T04:19:42.775Z,9.95
2023-03-21T04:22:11.012Z,9.75
2023-03-21T04:24:43.084Z,9.15
2023-03-21T04:27:11.223Z,9.77
2023-03-21T04:29:42.255Z,9.23
2023-03-21T04:32:26.752Z,9.13
2023-03-21T04:35:09.927Z,8.70
2023-03-21T04:37:39.409Z,9.10
2023-03-21T04:40:10.609Z,9.07
2023-03-21T04:42:38.724Z,8.85
2023-03-21T04:45:07.528Z,9.98
2023-03-21T04:47:35.252Z,9.02
2023-03-21T04:50:03.773Z,9.23
2023-03-21T04:52:31.538Z,9.23
2023-03-21T04:54:59.571Z,9.02
2023-03-21T04:57:27.344Z,8.77
2023-03-21T04:59:56.057Z,8.85
2023-03-21T05:02:27.556Z,8.75
2023-03-21T05:04:57.659Z,8.25
2023-03-21T05:07:26.626Z,8.13
2023-03-21T05:09:55.796Z,8.23
2023-03-21T05:12:23.605Z,7.85
2023-03-21T05:14:51.673Z,7.90
2023-03-21T05:17:23.492Z,8.05
2023-03-21T05:19:53.055Z,7.60
2023-03-21T05:22:20.846Z,8.00
2023-03-21T05:24:50.526Z,7.53
2023-03-21T05:27:36.158Z,7.60
2023-03-21T05:30:16.483Z,7.50
2023-03-21T05:32:45.725Z,7.28
2023-03-21T05:35:13.797Z,8.30
2023-03-21T05:37:41.674Z,7.40
2023-03-21T05:40:10.469Z,7.78
2023-03-21T05:42:42.082Z,8.07
2023-03-21T05:45:17.810Z,7.68
2023-03-21T05:47:45.668Z,8.45
2023-03-21T05:50:14.619Z,8.27
2023-03-21T05:52:45.528Z,8.30
2023-03-21T05:55:16.654Z,9.52
2023-03-21T05:57:44.857Z,8.95
2023-03-21T06:00:28.326Z,8.20
2023-03-21T06:03:21.798Z,9.80
2023-03-21T06:05:59.852Z,9.32
2023-03-21T06:08:34.445Z,9.95
2023-03-21T06:11:02.636Z,10.20
2023-03-21T06:13:33.130Z,9.32
2023-03-21T06:16:01.710Z,9.82
2023-03-21T06:18:29.902Z,10.27
2023-03-21T06:21:15.448Z,14.43
2023-03-21T06:23:43.292Z,19.38
2023-03-21T06:26:12.201Z,22.15
2023-03-21T06:28:41.892Z,26.20
2023-03-21T06:31:09.768Z,28.88
2023-03-21T06:33:37.593Z,34.85
2023-03-21T06:36:05.625Z,39.08
2023-03-21T06:38:33.864Z,40.10
2023-03-21T06:41:04.882Z,40.38
2023-03-21T06:43:38.262Z,37.97
2023-03-21T06:46:06.178Z,36.65
2023-03-21T06:48:34.396Z,34.70
2023-03-21T06:51:02.211Z,34.55
2023-03-21T06:53:33.880Z,32.85
2023-03-21T06:56:26.084Z,30.00
2023-03-21T06:58:54.230Z,27.00
2023-03-21T07:01:44.738Z,25.20
2023-03-21T07:04:12.661Z,23.38
2023-03-21T07:06:40.371Z,23.42
2023-03-21T07:09:08.622Z,20.90
2023-03-21T07:11:37.285Z,21.30
2023-03-21T07:14:06.842Z,20.55
2023-03-21T07:16:34.737Z,19.42
2023-03-21T07:19:02.568Z,18.95
2023-03-21T07:21:30.775Z,19.00
2023-03-21T07:23:58.709Z,18.10
2023-03-21T07:26:26.612Z,17.70
2023-03-21T07:28:54.561Z,16.67
2023-03-21T07:31:22.341Z,16.42
2023-03-21T07:33:50.613Z,15.90
2023-03-21T07:36:18.489Z,15.57
2023-03-21T07:38:46.525Z,14.55
2023-03-21T07:43:44.092Z,13.63
2023-03-21T07:46:11.937Z,12.77
2023-03-21T07:48:40.181Z,13.95
2023-03-21T07:51:08.053Z,12.48
2023-03-21T07:53:36.680Z,12.00
2023-03-21T07:56:04.711Z,13.05
2023-03-21T07:58:34.394Z,11.93
2023-03-21T08:01:02.625Z,11.30
2023-03-21T08:03:32.892Z,11.05
2023-03-21T08:06:01.646Z,11.55
2023-03-21T08:08:29.461Z,11.02
2023-03-21T08:10:57.418Z,9.90
2023-03-21T08:13:26.244Z,10.45
2023-03-21T08:15:54.090Z,10.00
2023-03-21T08:18:21.807Z,10.23
2023-03-21T08:20:57.249Z,10.10
2023-03-21T08:23:26.127Z,8.95
2023-03-21T08:25:54.643Z,9.57
2023-03-21T08:28:23.313Z,9.25
2023-03-21T08:30:51.065Z,8.85
2023-03-21T08:33:18.943Z,8.85
2023-03-21T08:35:47.221Z,8.93
2023-03-21T08:38:15.079Z,8.80
2023-03-21T08:40:43.776Z,8.43
2023-03-21T08:43:13.685Z,8.70
2023-03-21T08:45:42.503Z,8.80
2023-03-21T08:48:10.340Z,8.00
2023-03-21T08:50:38.144Z,8.07
2023-03-21T08:53:05.961Z,8.38
2023-03-21T08:55:34.943Z,7.82
2023-03-21T08:58:03.365Z,7.53
2023-03-21T09:00:31.399Z,7.68
2023-03-21T09:02:59.309Z,8.57
2023-03-21T09:05:28.435Z,8.20
2023-03-21T09:07:56.216Z,7.75
2023-03-21T09:10:24.193Z,7.90
2023-03-21T09:12:53.843Z,7.80
2023-03-21T09:15:25.117Z,7.30
2023-03-21T09:17:54.663Z,7.88
2023-03-21T09:20:31.083Z,7.50
2023-03-21T09:22:59.965Z,7.43
2023-03-21T09:25:31.757Z,7.50
2023-03-21T09:28:00.735Z,7.32
2023-03-21T09:30:29.563Z,7.32
2023-03-21T09:33:00.697Z,6.60
2023-03-21T09:35:29.700Z,7.05
2023-03-21T09:37:59.195Z,6.57
2023-03-21T09:40:50.233Z,6.95
2023-03-21T09:43:30.862Z,6.72
2023-03-21T09:46:34.960Z,6.80
2023-03-21T09:49:10.112Z,6.22
2023-03-21T09:51:42.479Z,7.43
2023-03-21T09:54:20.992Z,6.70
2023-03-21T09:56:50.442Z,6.47
2023-03-21T09:59:33.549Z,6.07
2023-03-21T10:02:03.655Z,5.97
2023-03-21T10:04:33.211Z,6.07
2023-03-21T10:07:02.408Z,6.93
2023-03-21T10:09:32.631Z,6.28
2023-03-21T10:12:09.974Z,6.10
2023-03-21T10:14:51.044Z,6.43
2023-03-21T10:17:33.953Z,6.43
2023-03-21T10:20:16.484Z,6.15
2023-03-21T10:22:46.976Z,6.20
2023-03-21T10:25:21.503Z,5.45
2023-03-21T10:27:49.911Z,6.03
2023-03-21T10:30:27.498Z,6.30
2023-03-21T10:32:59.578Z,5.55
2023-03-21T10:37:55.100Z,5.95
2023-03-21T10:40:22.849Z,5.72
2023-03-21T10:42:50.697Z,6.30
2023-03-21T10:45:20.714Z,6.10
2023-03-21T10:47:50.687Z,5.78
2023-03-21T10:58:34.916Z,5.40
2023-03-21T11:01:05.857Z,5.70
2023-03-21T11:03:36.588Z,6.05
2023-03-21T11:06:07.836Z,5.72
2023-03-21T11:08:43.102Z,5.88
2023-03-21T11:11:31.940Z,5.10
2023-03-21T11:14:07.109Z,5.80
2023-03-21T11:16:42.130Z,5.55
2023-03-21T11:19:19.150Z,5.45
2023-03-21T11:21:47.220Z,5.32
2023-03-21T11:24:16.968Z,5.47
2023-03-21T11:26:46.773Z,5.43
2023-03-21T11:29:51.248Z,5.78
2023-03-21T11:32:26.428Z,5.35
2023-03-21T11:35:22.547Z,5.15
2023-03-21T11:37:55.653Z,5.68
2023-03-21T11:40:34.094Z,5.20
2023-03-21T11:43:23.347Z,5.38
2023-03-21T11:46:05.579Z,5.47
2023-03-21T11:48:44.337Z,4.82
2023-03-21T11:51:39.636Z,5.40
2023-03-21T11:54:19.948Z,4.88
2023-03-21T11:56:49.659Z,5.22
2023-03-21T11:59:34.462Z,5.03
2023-03-21T12:02:19.206Z,5.22
2023-03-21T12:04:52.605Z,5.10
2023-03-21T12:07:28.235Z,4.55
2023-03-21T12:10:30.152Z,4.72
2023-03-21T12:13:33.384Z,4.60
2023-03-21T12:16:52.255Z,4.25
2023-03-21T12:19:19.881Z,4.53
2023-03-21T12:21:59.868Z,4.68
2023-03-21T12:24:34.121Z,4.60
2023-03-21T12:27:37.767Z,4.50
2023-03-21T12:30:23.554Z,4.72
2023-03-21T12:33:10.555Z,4.93
2023-03-21T12:36:07.365Z,5.05
2023-03-21T12:38:37.942Z,4.32
2023-03-21T12:41:09.765Z,4.70
2023-03-21T12:43:45.933Z,4.40
2023-03-21T12:46:46.570Z,4.53
2023-03-21T12:49:18.721Z,4.68
2023-03-21T12:51:52.432Z,4.60
2023-03-21T12:54:38.349Z,4.10
2023-03-21T12:57:26.835Z,5.25
2023-03-21T13:00:17.984Z,5.22
2023-03-21T13:03:01.265Z,5.38
2023-03-21T13:05:35.872Z,4.85
2023-03-21T13:08:08.299Z,5.15
2023-03-21T13:10:36.487Z,4.88
2023-03-21T13:13:10.024Z,5.30
2023-03-21T13:15:57.768Z,4.68
2023-03-21T13:18:53.990Z,5.13
2023-03-21T13:21:49.573Z,4.63
2023-03-21T13:24:33.306Z,5.38
2023-03-21T13:27:06.650Z,4.90
2023-03-21T13:29:44.397Z,4.60
2023-03-21T13:32:33.481Z,4.93
2023-03-21T13:35:21.215Z,4.97
2023-03-21T13:38:14.568Z,5.10
2023-03-21T13:41:22.790Z,4.72
2023-03-21T13:44:02.638Z,4.88
2023-03-21T13:46:34.182Z,4.80
2023-03-21T13:49:08.237Z,4.65
2023-03-21T13:51:47.661Z,4.80
2023-03-21T13:54:15.638Z,4.40
2023-03-21T13:56:49.943Z,4.57
2023-03-21T13:59:20.269Z,4.63
2023-03-21T14:02:19.029Z,5.30
2023-03-21T14:05:03.980Z,5.03
2023-03-21T14:07:35.290Z,4.68
2023-03-21T14:10:14.254Z,4.72
2023-03-21T14:12:42.812Z,4.50
2023-03-21T14:15:21.000Z,4.55
2023-03-21T14:17:53.759Z,4.20
2023-03-21T14:20:33.002Z,4.43
2023-03-21T14:23:01.212Z,4.80
2023-03-21T14:25:40.804Z,4.40
2023-03-21T14:28:19.231Z,4.70
2023-03-21T14:30:51.416Z,4.55
2023-03-21T14:35:49.152Z,4.63
2023-03-21T14:38:22.777Z,4.53
2023-03-21T14:40:55.850Z,4.22
2023-03-21T14:43:24.306Z,4.57
2023-03-21T14:45:54.588Z,4.30
2023-03-21T14:48:30.473Z,4.30
2023-03-21T14:51:02.638Z,4.97
2023-03-21T14:53:39.138Z,4.30
2023-03-21T14:56:10.894Z,4.38
2023-03-21T14:58:39.770Z,4.13
2023-03-21T15:01:22.718Z,4.20
2023-03-21T15:03:52.219Z,4.40
2023-03-21T15:06:20.208Z,4.22
2023-03-21T15:08:56.671Z,4.18
2023-03-21T15:11:39.800Z,4.53
2023-03-21T15:14:09.553Z,4.68
2023-03-21T15:16:37.501Z,4.45
2023-03-21T15:19:06.053Z,4.03
2023-03-21T15:21:39.850Z,4.20
2023-03-21T15:24:13.939Z,4.40
2023-03-21T15:26:46.181Z,4.30
2023-03-21T15:31:42.310Z,4.40
2023-03-21T15:34:25.258Z,4.68
2023-03-21T15:36:57.147Z,3.97
2023-03-21T15:39:26.888Z,4.70
2023-03-21T15:42:07.373Z,4.30
2023-03-21T15:44:35.773Z,4.30
2023-03-21T15:47:03.581Z,4.43
2023-03-21T15:49:33.341Z,4.25
2023-03-21T15:52:12.925Z,4.18
2023-03-21T15:54:56.099Z,4.28
2023-03-21T15:57:33.071Z,4.45
2023-03-21T16:00:12.079Z,4.10
2023-03-21T16:02:41.797Z,4.55
2023-03-21T16:05:33.755Z,4.43
2023-03-21T16:08:22.866Z,4.57
2023-03-21T16:10:51.008Z,4.50
2023-03-21T16:13:18.701Z,4.22
2023-03-21T16:15:47.225Z,3.92
2023-03-21T16:18:17.197Z,4.35
2023-03-21T16:20:46.906Z,4.15
2023-03-21T16:23:17.480Z,4.18
2023-03-21T16:25:45.928Z,3.97
2023-03-21T16:28:16.364Z,3.85
2023-03-21T16:30:44.992Z,4.53
2023-03-21T16:33:13.874Z,4.13
2023-03-21T16:35:41.739Z,4.13
2023-03-21T16:38:11.175Z,4.25
2023-03-21T16:40:41.198Z,4.45
2023-03-21T16:43:09.634Z,4.22
2023-03-21T16:45:37.620Z,4.30
2023-03-21T16:48:05.721Z,3.78
2023-03-21T16:50:37.229Z,4.35
2023-03-21T16:53:05.337Z,4.32
2023-03-21T16:55:34.882Z,3.83
2023-03-21T16:58:03.725Z,3.80
2023-03-21T17:00:32.054Z,4.05
2023-03-21T17:03:02.745Z,4.25
2023-03-21T17:05:31.018Z,3.90
2023-03-21T17:08:02.412Z,4.22
2023-03-21T17:10:31.653Z,3.97
2023-03-21T17:12:59.921Z,4.15
2023-03-21T17:15:27.873Z,4.15
2023-03-21T17:17:55.965Z,3.70
2023-03-21T17:20:30.206Z,3.63
2023-03-21T17:22:57.988Z,4.22
2023-03-21T17:25:25.934Z,4.30
2023-03-21T17:27:54.382Z,4.70
2023-03-21T17:30:34.343Z,10.07
2023-03-21T17:33:03.126Z,25.40
2023-03-21T17:35:30.903Z,26.40
2023-03-21T17:37:58.834Z,25.27
2023-03-21T17:40:29.181Z,26.92
2023-03-21T17:42:58.225Z,30.65
2023-03-21T17:45:26.035Z,34.22
2023-03-21T17:47:55.132Z,32.20
2023-03-21T17:50:26.105Z,34.97
2023-03-21T17:52:56.650Z,35.15
2023-03-21T17:55:24.756Z,34.53
2023-03-21T17:57:52.542Z,31.35
2023-03-21T18:00:23.577Z,32.10
2023-03-21T18:02:51.879Z,32.00
2023-03-21T18:05:21.757Z,28.90
2023-03-21T18:08:10.734Z,29.10
2023-03-21T18:10:39.779Z,26.30
2023-03-21T18:13:07.849Z,27.83
2023-03-21T18:15:38.035Z,27.27
2023-03-21T18:18:06.296Z,25.17
2023-03-21T18:23:22.001Z,23.92
2023-03-21T18:25:50.062Z,22.77
2023-03-21T18:28:21.103Z,21.92
2023-03-21T18:31:07.852Z,21.20
2023-03-21T18:33:40.539Z,22.50
2023-03-21T18:36:10.106Z,22.33
2023-03-21T18:38:38.223Z,20.63
2023-03-21T18:41:07.845Z,20.45
2023-03-21T18:46:25.039Z,18.65
2023-03-21T18:48:52.877Z,18.88
2023-03-21T18:51:21.908Z,18.23
2023-03-21T18:53:49.817Z,18.35
2023-03-21T18:59:06.000Z,16.33
2023-03-21T19:01:33.832Z,15.80
2023-03-21T19:04:25.341Z,15.85
2023-03-21T19:06:50.680Z,15.07
2023-03-21T19:09:18.869Z,13.93
2023-03-21T19:11:47.373Z,13.73
2023-03-21T19:14:16.595Z,12.18
2023-03-21T19:17:23.163Z,12.43
2023-03-21T19:19:34.041Z,11.82
2023-03-21T19:22:01.980Z,11.30
2023-03-21T19:24:29.936Z,10.35
